sensor_id;sensor_type;location;lat;lon;timestamp;temperature;humidity
64888;DHT22;51386;53.082;8.816;2023-04-29T00:01:19;13.50;87.30
64888;DHT22;51386;53.082;8.816;2023-04-29T00:03:46;13.50;87.30
64888;DHT22;51386;53.082;8.816;2023-04-29T00:06:13;13.50;87.50
64888;DHT22;51386;53.082;8.816;2023-04-29T00:08:42;13.50;87.30
64888;DHT22;51386;53.082;8.816;2023-04-29T00:11:09;13.50;87.40
64888;DHT22;51386;53.082;8.816;2023-04-29T00:13:37;13.40;87.30
64888;DHT22;51386;53.082;8.816;2023-04-29T00:16:07;13.40;87.10
64888;DHT22;51386;53.082;8.816;2023-04-29T00:18:36;13.40;87.10
64888;DHT22;51386;53.082;8.816;2023-04-29T00:21:03;13.40;87.20
64888;DHT22;51386;53.082;8.816;2023-04-29T00:23:34;13.40;87.40
64888;DHT22;51386;53.082;8.816;2023-04-29T00:26:04;13.40;87.50
64888;DHT22;51386;53.082;8.816;2023-04-29T00:28:31;13.40;87.50
64888;DHT22;51386;53.082;8.816;2023-04-29T00:30:59;13.40;87.40
64888;DHT22;51386;53.082;8.816;2023-04-29T00:33:26;13.40;87.30
64888;DHT22;51386;53.082;8.816;2023-04-29T00:35:53;13.40;87.40
64888;DHT22;51386;53.082;8.816;2023-04-29T00:38:20;13.40;87.30
64888;DHT22;51386;53.082;8.816;2023-04-29T00:40:47;13.30;87.30
64888;DHT22;51386;53.082;8.816;2023-04-29T00:43:15;13.30;87.10
64888;DHT22;51386;53.082;8.816;2023-04-29T00:45:42;13.30;87.10
64888;DHT22;51386;53.082;8.816;2023-04-29T00:48:10;13.30;87.00
64888;DHT22;51386;53.082;8.816;2023-04-29T00:50:37;13.30;87.00
64888;DHT22;51386;53.082;8.816;2023-04-29T00:53:04;13.30;87.20
64888;DHT22;51386;53.082;8.816;2023-04-29T00:55:32;13.30;87.10
64888;DHT22;51386;53.082;8.816;2023-04-29T00:58:01;13.30;86.90
64888;DHT22;51386;53.082;8.816;2023-04-29T01:00:31;13.30;86.70
64888;DHT22;51386;53.082;8.816;2023-04-29T01:02:59;13.30;86.60
64888;DHT22;51386;53.082;8.816;2023-04-29T01:05:26;13.20;86.50
64888;DHT22;51386;53.082;8.816;2023-04-29T01:08:01;13.20;86.50
64888;DHT22;51386;53.082;8.816;2023-04-29T01:10:43;13.20;86.50
64888;DHT22;51386;53.082;8.816;2023-04-29T01:13:17;13.20;86.50
64888;DHT22;51386;53.082;8.816;2023-04-29T01:16:01;13.20;86.50
64888;DHT22;51386;53.082;8.816;2023-04-29T01:18:33;13.20;86.50
64888;DHT22;51386;53.082;8.816;2023-04-29T01:21:03;13.10;86.20
64888;DHT22;51386;53.082;8.816;2023-04-29T01:23:32;13.10;86.20
64888;DHT22;51386;53.082;8.816;2023-04-29T01:25:58;13.10;86.10
64888;DHT22;51386;53.082;8.816;2023-04-29T01:28:38;13.10;86.20
64888;DHT22;51386;53.082;8.816;2023-04-29T01:31:18;13.10;86.20
64888;DHT22;51386;53.082;8.816;2023-04-29T01:33:58;13.10;86.10
64888;DHT22;51386;53.082;8.816;2023-04-29T01:36:40;13.10;86.10
64888;DHT22;51386;53.082;8.816;2023-04-29T01:39:22;13.10;85.90
64888;DHT22;51386;53.082;8.816;2023-04-29T01:42:04;13.00;85.90
64888;DHT22;51386;53.082;8.816;2023-04-29T01:44:37;13.10;85.90
64888;DHT22;51386;53.082;8.816;2023-04-29T01:47:09;13.10;85.80
64888;DHT22;51386;53.082;8.816;2023-04-29T01:49:39;13.00;85.50
64888;DHT22;51386;53.082;8.816;2023-04-29T01:52:06;13.00;85.60
64888;DHT22;51386;53.082;8.816;2023-04-29T01:54:34;13.00;85.60
64888;DHT22;51386;53.082;8.816;2023-04-29T01:57:02;13.00;85.40
64888;DHT22;51386;53.082;8.816;2023-04-29T01:59:29;13.00;85.30
64888;DHT22;51386;53.082;8.816;2023-04-29T02:01:57;13.00;85.30
64888;DHT22;51386;53.082;8.816;2023-04-29T02:04:24;13.00;85.40
64888;DHT22;51386;53.082;8.816;2023-04-29T02:06:53;13.00;85.30
64888;DHT22;51386;53.082;8.816;2023-04-29T02:09:20;13.00;85.10
64888;DHT22;51386;53.082;8.816;2023-04-29T02:11:48;12.90;84.90
64888;DHT22;51386;53.082;8.816;2023-04-29T02:14:15;12.90;85.60
64888;DHT22;51386;53.082;8.816;2023-04-29T02:16:43;12.90;84.90
64888;DHT22;51386;53.082;8.816;2023-04-29T02:19:11;12.90;84.80
64888;DHT22;51386;53.082;8.816;2023-04-29T02:21:38;12.90;84.70
64888;DHT22;51386;53.082;8.816;2023-04-29T02:24:05;12.90;84.70
64888;DHT22;51386;53.082;8.816;2023-04-29T02:26:32;12.90;84.50
64888;DHT22;51386;53.082;8.816;2023-04-29T02:29:05;12.90;84.50
64888;DHT22;51386;53.082;8.816;2023-04-29T02:31:32;12.90;84.60
64888;DHT22;51386;53.082;8.816;2023-04-29T02:33:59;12.80;84.40
64888;DHT22;51386;53.082;8.816;2023-04-29T02:36:26;12.80;84.60
64888;DHT22;51386;53.082;8.816;2023-04-29T02:38:54;12.70;84.20
64888;DHT22;51386;53.082;8.816;2023-04-29T02:41:22;12.70;84.40
64888;DHT22;51386;53.082;8.816;2023-04-29T02:43:49;12.70;84.40
64888;DHT22;51386;53.082;8.816;2023-04-29T02:46:17;12.70;84.50
64888;DHT22;51386;53.082;8.816;2023-04-29T02:49:03;12.70;84.30
64888;DHT22;51386;53.082;8.816;2023-04-29T02:51:48;12.60;84.10
64888;DHT22;51386;53.082;8.816;2023-04-29T02:54:33;12.60;84.10
64888;DHT22;51386;53.082;8.816;2023-04-29T02:57:02;12.60;84.10
64888;DHT22;51386;53.082;8.816;2023-04-29T02:59:29;12.50;84.10
64888;DHT22;51386;53.082;8.816;2023-04-29T03:01:57;12.50;84.20
64888;DHT22;51386;53.082;8.816;2023-04-29T03:04:24;12.50;84.40
64888;DHT22;51386;53.082;8.816;2023-04-29T03:06:51;12.50;84.30
64888;DHT22;51386;53.082;8.816;2023-04-29T03:09:18;12.50;84.40
64888;DHT22;51386;53.082;8.816;2023-04-29T03:11:46;12.50;84.40
64888;DHT22;51386;53.082;8.816;2023-04-29T03:14:13;12.50;84.40
64888;DHT22;51386;53.082;8.816;2023-04-29T03:16:41;12.50;84.20
64888;DHT22;51386;53.082;8.816;2023-04-29T03:19:09;12.50;84.10
64888;DHT22;51386;53.082;8.816;2023-04-29T03:21:36;12.50;84.20
64888;DHT22;51386;53.082;8.816;2023-04-29T03:24:03;12.50;84.10
64888;DHT22;51386;53.082;8.816;2023-04-29T03:26:31;12.50;84.00
64888;DHT22;51386;53.082;8.816;2023-04-29T03:28:58;12.50;84.00
64888;DHT22;51386;53.082;8.816;2023-04-29T03:31:25;12.50;84.20
64888;DHT22;51386;53.082;8.816;2023-04-29T03:33:53;12.50;84.10
64888;DHT22;51386;53.082;8.816;2023-04-29T03:36:21;12.50;84.10
64888;DHT22;51386;53.082;8.816;2023-04-29T03:38:48;12.50;84.00
64888;DHT22;51386;53.082;8.816;2023-04-29T03:41:15;12.50;84.00
64888;DHT22;51386;53.082;8.816;2023-04-29T03:43:43;12.50;84.10
64888;DHT22;51386;53.082;8.816;2023-04-29T03:46:10;12.40;84.10
64888;DHT22;51386;53.082;8.816;2023-04-29T03:48:37;12.40;84.80
64888;DHT22;51386;53.082;8.816;2023-04-29T03:51:04;12.40;84.20
64888;DHT22;51386;53.082;8.816;2023-04-29T03:53:32;12.40;84.30
64888;DHT22;51386;53.082;8.816;2023-04-29T03:55:59;12.40;84.20
64888;DHT22;51386;53.082;8.816;2023-04-29T03:58:26;12.40;84.00
64888;DHT22;51386;53.082;8.816;2023-04-29T04:00:53;12.40;83.90
64888;DHT22;51386;53.082;8.816;2023-04-29T04:03:20;12.40;83.80
64888;DHT22;51386;53.082;8.816;2023-04-29T04:05:49;12.40;83.90
64888;DHT22;51386;53.082;8.816;2023-04-29T04:08:16;12.40;84.10
64888;DHT22;51386;53.082;8.816;2023-04-29T04:10:44;12.40;84.20
64888;DHT22;51386;53.082;8.816;2023-04-29T04:13:11;12.30;84.10
64888;DHT22;51386;53.082;8.816;2023-04-29T04:15:38;12.30;84.00
64888;DHT22;51386;53.082;8.816;2023-04-29T04:18:05;12.30;84.00
64888;DHT22;51386;53.082;8.816;2023-04-29T04:20:32;12.30;84.10
64888;DHT22;51386;53.082;8.816;2023-04-29T04:23:02;12.30;84.10
64888;DHT22;51386;53.082;8.816;2023-04-29T04:25:28;12.20;84.00
64888;DHT22;51386;53.082;8.816;2023-04-29T04:27:57;12.20;84.20
64888;DHT22;51386;53.082;8.816;2023-04-29T04:30:24;12.20;84.50
64888;DHT22;51386;53.082;8.816;2023-04-29T04:32:51;12.20;84.30
64888;DHT22;51386;53.082;8.816;2023-04-29T04:35:18;12.20;84.50
64888;DHT22;51386;53.082;8.816;2023-04-29T04:37:45;12.20;84.40
64888;DHT22;51386;53.082;8.816;2023-04-29T04:40:12;12.20;84.50
64888;DHT22;51386;53.082;8.816;2023-04-29T04:42:39;12.20;84.50
64888;DHT22;51386;53.082;8.816;2023-04-29T04:45:09;12.20;84.40
64888;DHT22;51386;53.082;8.816;2023-04-29T04:47:38;12.20;84.40
64888;DHT22;51386;53.082;8.816;2023-04-29T04:50:07;12.20;84.20
64888;DHT22;51386;53.082;8.816;2023-04-29T04:52:34;12.20;84.40
64888;DHT22;51386;53.082;8.816;2023-04-29T04:55:02;12.20;84.40
64888;DHT22;51386;53.082;8.816;2023-04-29T04:57:29;12.20;84.60
64888;DHT22;51386;53.082;8.816;2023-04-29T04:59:56;12.10;84.60
64888;DHT22;51386;53.082;8.816;2023-04-29T05:02:25;12.10;84.60
64888;DHT22;51386;53.082;8.816;2023-04-29T05:04:52;12.10;84.80
64888;DHT22;51386;53.082;8.816;2023-04-29T05:07:19;12.10;85.00
64888;DHT22;51386;53.082;8.816;2023-04-29T05:09:46;12.10;84.70
64888;DHT22;51386;53.082;8.816;2023-04-29T05:12:13;12.10;84.70
64888;DHT22;51386;53.082;8.816;2023-04-29T05:14:40;12.20;84.70
64888;DHT22;51386;53.082;8.816;2023-04-29T05:17:07;12.20;84.80
64888;DHT22;51386;53.082;8.816;2023-04-29T05:19:36;12.20;84.70
64888;DHT22;51386;53.082;8.816;2023-04-29T05:22:03;12.30;84.60
64888;DHT22;51386;53.082;8.816;2023-04-29T05:24:31;12.30;84.50
64888;DHT22;51386;53.082;8.816;2023-04-29T05:26:58;12.30;84.50
64888;DHT22;51386;53.082;8.816;2023-04-29T05:29:25;12.30;84.40
64888;DHT22;51386;53.082;8.816;2023-04-29T05:31:53;12.40;84.40
64888;DHT22;51386;53.082;8.816;2023-04-29T05:34:20;12.40;84.20
64888;DHT22;51386;53.082;8.816;2023-04-29T05:36:48;12.40;84.10
64888;DHT22;51386;53.082;8.816;2023-04-29T05:39:15;12.40;84.00
64888;DHT22;51386;53.082;8.816;2023-04-29T05:41:43;12.50;84.00
64888;DHT22;51386;53.082;8.816;2023-04-29T05:44:10;12.50;83.90
64888;DHT22;51386;53.082;8.816;2023-04-29T05:46:37;12.50;83.70
64888;DHT22;51386;53.082;8.816;2023-04-29T05:49:04;12.50;83.70
64888;DHT22;51386;53.082;8.816;2023-04-29T05:51:31;12.60;83.60
64888;DHT22;51386;53.082;8.816;2023-04-29T05:53:59;12.60;83.50
64888;DHT22;51386;53.082;8.816;2023-04-29T05:56:26;12.70;83.50
64888;DHT22;51386;53.082;8.816;2023-04-29T05:58:53;12.70;83.20
64888;DHT22;51386;53.082;8.816;2023-04-29T06:01:20;12.70;83.00
64888;DHT22;51386;53.082;8.816;2023-04-29T06:03:47;12.70;82.80
64888;DHT22;51386;53.082;8.816;2023-04-29T06:06:15;12.70;82.90
64888;DHT22;51386;53.082;8.816;2023-04-29T06:08:42;12.80;82.70
64888;DHT22;51386;53.082;8.816;2023-04-29T06:11:10;12.80;82.60
64888;DHT22;51386;53.082;8.816;2023-04-29T06:13:37;12.90;82.40
64888;DHT22;51386;53.082;8.816;2023-04-29T06:16:05;12.90;82.40
64888;DHT22;51386;53.082;8.816;2023-04-29T06:18:33;12.90;82.50
64888;DHT22;51386;53.082;8.816;2023-04-29T06:21:00;12.90;82.20
64888;DHT22;51386;53.082;8.816;2023-04-29T06:23:27;13.00;82.20
64888;DHT22;51386;53.082;8.816;2023-04-29T06:25:54;13.00;82.00
64888;DHT22;51386;53.082;8.816;2023-04-29T06:28:22;13.00;81.80
64888;DHT22;51386;53.082;8.816;2023-04-29T06:30:49;13.00;81.80
64888;DHT22;51386;53.082;8.816;2023-04-29T06:33:16;13.00;81.80
64888;DHT22;51386;53.082;8.816;2023-04-29T06:35:43;13.00;81.80
64888;DHT22;51386;53.082;8.816;2023-04-29T06:38:10;13.10;81.70
64888;DHT22;51386;53.082;8.816;2023-04-29T06:40:37;13.10;81.70
64888;DHT22;51386;53.082;8.816;2023-04-29T06:43:03;13.10;81.80
64888;DHT22;51386;53.082;8.816;2023-04-29T06:45:32;13.10;81.90
64888;DHT22;51386;53.082;8.816;2023-04-29T06:47:59;13.10;81.80
64888;DHT22;51386;53.082;8.816;2023-04-29T06:50:26;13.20;81.90
64888;DHT22;51386;53.082;8.816;2023-04-29T06:52:54;13.20;81.80
64888;DHT22;51386;53.082;8.816;2023-04-29T06:55:21;13.20;81.80
64888;DHT22;51386;53.082;8.816;2023-04-29T06:57:48;13.30;81.60
64888;DHT22;51386;53.082;8.816;2023-04-29T07:00:15;13.30;81.60
64888;DHT22;51386;53.082;8.816;2023-04-29T07:02:46;13.40;81.60
64888;DHT22;51386;53.082;8.816;2023-04-29T07:05:13;13.40;80.80
64888;DHT22;51386;53.082;8.816;2023-04-29T07:07:40;13.50;80.80
64888;DHT22;51386;53.082;8.816;2023-04-29T07:10:08;13.50;80.80
64888;DHT22;51386;53.082;8.816;2023-04-29T07:12:35;13.60;80.40
64888;DHT22;51386;53.082;8.816;2023-04-29T07:15:03;13.60;80.30
64888;DHT22;51386;53.082;8.816;2023-04-29T07:17:30;13.70;80.10
64888;DHT22;51386;53.082;8.816;2023-04-29T07:19:59;13.80;80.10
64888;DHT22;51386;53.082;8.816;2023-04-29T07:22:26;13.80;79.90
64888;DHT22;51386;53.082;8.816;2023-04-29T07:24:53;13.90;79.60
64888;DHT22;51386;53.082;8.816;2023-04-29T07:27:21;14.00;79.40
64888;DHT22;51386;53.082;8.816;2023-04-29T07:29:49;14.00;79.10
64888;DHT22;51386;53.082;8.816;2023-04-29T07:32:16;14.10;79.10
64888;DHT22;51386;53.082;8.816;2023-04-29T07:34:43;14.20;79.10
64888;DHT22;51386;53.082;8.816;2023-04-29T07:37:11;14.30;78.70
64888;DHT22;51386;53.082;8.816;2023-04-29T07:39:38;14.30;77.80
64888;DHT22;51386;53.082;8.816;2023-04-29T07:42:05;14.40;77.70
64888;DHT22;51386;53.082;8.816;2023-04-29T07:44:32;14.50;77.10
64888;DHT22;51386;53.082;8.816;2023-04-29T07:46:59;14.60;76.20
64888;DHT22;51386;53.082;8.816;2023-04-29T07:49:26;14.70;76.20
64888;DHT22;51386;53.082;8.816;2023-04-29T07:51:53;14.80;76.30
64888;DHT22;51386;53.082;8.816;2023-04-29T07:54:21;14.90;76.30
64888;DHT22;51386;53.082;8.816;2023-04-29T07:56:49;15.10;75.60
64888;DHT22;51386;53.082;8.816;2023-04-29T07:59:16;15.20;75.40
64888;DHT22;51386;53.082;8.816;2023-04-29T08:01:43;15.30;73.90
64888;DHT22;51386;53.082;8.816;2023-04-29T08:04:10;15.40;72.40
64888;DHT22;51386;53.082;8.816;2023-04-29T08:06:37;15.50;72.20
64888;DHT22;51386;53.082;8.816;2023-04-29T08:09:04;15.60;71.50
64888;DHT22;51386;53.082;8.816;2023-04-29T08:11:32;15.70;70.60
64888;DHT22;51386;53.082;8.816;2023-04-29T08:13:59;15.80;70.60
64888;DHT22;51386;53.082;8.816;2023-04-29T08:16:26;15.90;68.90
64888;DHT22;51386;53.082;8.816;2023-04-29T08:18:53;16.00;68.40
64888;DHT22;51386;53.082;8.816;2023-04-29T08:21:21;16.10;67.00
64888;DHT22;51386;53.082;8.816;2023-04-29T08:23:48;16.30;67.10
64888;DHT22;51386;53.082;8.816;2023-04-29T08:26:15;16.40;66.50
64888;DHT22;51386;53.082;8.816;2023-04-29T08:28:44;16.50;65.70
64888;DHT22;51386;53.082;8.816;2023-04-29T08:31:15;16.70;64.60
64888;DHT22;51386;53.082;8.816;2023-04-29T08:33:43;17.00;66.20
64888;DHT22;51386;53.082;8.816;2023-04-29T08:36:10;17.50;65.30
64888;DHT22;51386;53.082;8.816;2023-04-29T08:38:37;17.90;62.10
64888;DHT22;51386;53.082;8.816;2023-04-29T08:41:06;18.30;59.40
64888;DHT22;51386;53.082;8.816;2023-04-29T08:43:35;18.50;57.70
64888;DHT22;51386;53.082;8.816;2023-04-29T08:46:04;18.90;57.80
64888;DHT22;51386;53.082;8.816;2023-04-29T08:48:31;19.20;56.40
64888;DHT22;51386;53.082;8.816;2023-04-29T08:51:00;19.60;56.90
64888;DHT22;51386;53.082;8.816;2023-04-29T08:53:28;19.90;56.10
64888;DHT22;51386;53.082;8.816;2023-04-29T08:55:57;20.20;55.60
64888;DHT22;51386;53.082;8.816;2023-04-29T08:58:32;20.30;52.30
64888;DHT22;51386;53.082;8.816;2023-04-29T09:01:01;20.60;52.50
64888;DHT22;51386;53.082;8.816;2023-04-29T09:03:36;20.90;52.60
64888;DHT22;51386;53.082;8.816;2023-04-29T09:06:10;21.50;52.00
64888;DHT22;51386;53.082;8.816;2023-04-29T09:08:38;21.90;47.50
64888;DHT22;51386;53.082;8.816;2023-04-29T09:11:07;22.30;47.60
64888;DHT22;51386;53.082;8.816;2023-04-29T09:13:37;22.70;47.60
64888;DHT22;51386;53.082;8.816;2023-04-29T09:16:09;23.10;43.70
64888;DHT22;51386;53.082;8.816;2023-04-29T09:18:41;23.50;42.40
64888;DHT22;51386;53.082;8.816;2023-04-29T09:21:13;24.10;41.10
64888;DHT22;51386;53.082;8.816;2023-04-29T09:23:49;24.60;41.40
64888;DHT22;51386;53.082;8.816;2023-04-29T09:26:17;25.10;37.90
64888;DHT22;51386;53.082;8.816;2023-04-29T09:28:44;25.30;36.60
64888;DHT22;51386;53.082;8.816;2023-04-29T09:31:14;25.80;38.20
64888;DHT22;51386;53.082;8.816;2023-04-29T09:33:54;26.20;37.00
64888;DHT22;51386;53.082;8.816;2023-04-29T09:36:36;26.60;34.90
64888;DHT22;51386;53.082;8.816;2023-04-29T09:39:09;27.00;34.50
64888;DHT22;51386;53.082;8.816;2023-04-29T09:41:58;27.30;33.80
64888;DHT22;51386;53.082;8.816;2023-04-29T09:44:29;27.60;32.90
64888;DHT22;51386;53.082;8.816;2023-04-29T09:47:03;27.60;30.90
64888;DHT22;51386;53.082;8.816;2023-04-29T09:49:32;27.80;32.00
64888;DHT22;51386;53.082;8.816;2023-04-29T09:52:06;28.00;31.50
64888;DHT22;51386;53.082;8.816;2023-04-29T09:54:35;28.20;30.60
64888;DHT22;51386;53.082;8.816;2023-04-29T09:57:07;28.10;29.50
64888;DHT22;51386;53.082;8.816;2023-04-29T09:59:36;28.30;30.00
64888;DHT22;51386;53.082;8.816;2023-04-29T10:02:14;28.30;29.90
64888;DHT22;51386;53.082;8.816;2023-04-29T10:04:44;28.50;29.60
64888;DHT22;51386;53.082;8.816;2023-04-29T10:07:14;28.50;29.00
64888;DHT22;51386;53.082;8.816;2023-04-29T10:09:43;28.60;28.70
64888;DHT22;51386;53.082;8.816;2023-04-29T10:12:15;28.60;28.80
64888;DHT22;51386;53.082;8.816;2023-04-29T10:14:47;28.50;29.20
64888;DHT22;51386;53.082;8.816;2023-04-29T10:17:37;28.40;28.70
64888;DHT22;51386;53.082;8.816;2023-04-29T10:20:13;27.90;28.60
64888;DHT22;51386;53.082;8.816;2023-04-29T10:22:45;27.40;29.90
64888;DHT22;51386;53.082;8.816;2023-04-29T10:25:15;27.10;30.90
64888;DHT22;51386;53.082;8.816;2023-04-29T10:27:43;27.00;30.90
64888;DHT22;51386;53.082;8.816;2023-04-29T10:30:12;26.80;31.30
64888;DHT22;51386;53.082;8.816;2023-04-29T10:32:41;26.60;31.80
64888;DHT22;51386;53.082;8.816;2023-04-29T10:35:19;26.20;32.10
64888;DHT22;51386;53.082;8.816;2023-04-29T10:37:49;25.60;32.20
64888;DHT22;51386;53.082;8.816;2023-04-29T10:40:23;25.40;32.80
64888;DHT22;51386;53.082;8.816;2023-04-29T10:42:57;25.30;33.30
64888;DHT22;51386;53.082;8.816;2023-04-29T10:45:26;25.40;33.60
64888;DHT22;51386;53.082;8.816;2023-04-29T10:48:12;25.10;31.90
64888;DHT22;51386;53.082;8.816;2023-04-29T10:51:00;24.90;32.90
64888;DHT22;51386;53.082;8.816;2023-04-29T10:53:28;24.90;33.80
64888;DHT22;51386;53.082;8.816;2023-04-29T10:56:03;24.90;33.10
64888;DHT22;51386;53.082;8.816;2023-04-29T10:58:39;25.00;32.40
64888;DHT22;51386;53.082;8.816;2023-04-29T11:01:10;25.20;32.40
64888;DHT22;51386;53.082;8.816;2023-04-29T11:03:48;25.20;31.80
64888;DHT22;51386;53.082;8.816;2023-04-29T11:06:38;25.10;31.40
64888;DHT22;51386;53.082;8.816;2023-04-29T11:09:09;24.80;32.50
64888;DHT22;51386;53.082;8.816;2023-04-29T11:11:46;24.60;32.90
64888;DHT22;51386;53.082;8.816;2023-04-29T11:14:23;24.20;32.70
64888;DHT22;51386;53.082;8.816;2023-04-29T11:16:54;23.90;33.30
64888;DHT22;51386;53.082;8.816;2023-04-29T11:19:29;23.70;33.50
64888;DHT22;51386;53.082;8.816;2023-04-29T11:22:14;23.70;34.10
64888;DHT22;51386;53.082;8.816;2023-04-29T11:24:53;23.90;34.70
64888;DHT22;51386;53.082;8.816;2023-04-29T11:27:24;24.10;33.30
64888;DHT22;51386;53.082;8.816;2023-04-29T11:29:53;24.20;33.30
64888;DHT22;51386;53.082;8.816;2023-04-29T11:32:24;24.30;32.20
64888;DHT22;51386;53.082;8.816;2023-04-29T11:34:54;24.10;31.90
64888;DHT22;51386;53.082;8.816;2023-04-29T11:37:24;24.10;32.40
64888;DHT22;51386;53.082;8.816;2023-04-29T11:39:58;24.20;32.30
64888;DHT22;51386;53.082;8.816;2023-04-29T11:42:26;24.30;31.60
64888;DHT22;51386;53.082;8.816;2023-04-29T11:44:54;24.30;31.30
64888;DHT22;51386;53.082;8.816;2023-04-29T11:47:26;24.20;30.80
64888;DHT22;51386;53.082;8.816;2023-04-29T11:50:03;24.10;30.30
64888;DHT22;51386;53.082;8.816;2023-04-29T11:52:31;24.00;30.60
64888;DHT22;51386;53.082;8.816;2023-04-29T11:54:58;23.90;30.60
64888;DHT22;51386;53.082;8.816;2023-04-29T11:57:26;23.80;30.40
64888;DHT22;51386;53.082;8.816;2023-04-29T11:59:53;23.60;30.40
64888;DHT22;51386;53.082;8.816;2023-04-29T12:02:21;23.40;30.60
64888;DHT22;51386;53.082;8.816;2023-04-29T12:04:49;23.40;30.70
64888;DHT22;51386;53.082;8.816;2023-04-29T12:07:18;23.40;31.10
64888;DHT22;51386;53.082;8.816;2023-04-29T12:09:45;23.50;31.40
64888;DHT22;51386;53.082;8.816;2023-04-29T12:12:13;23.60;31.50
64888;DHT22;51386;53.082;8.816;2023-04-29T12:14:41;23.80;31.10
64888;DHT22;51386;53.082;8.816;2023-04-29T12:17:09;23.90;31.00
64888;DHT22;51386;53.082;8.816;2023-04-29T12:19:38;24.00;30.20
64888;DHT22;51386;53.082;8.816;2023-04-29T12:22:07;24.00;30.60
64888;DHT22;51386;53.082;8.816;2023-04-29T12:24:36;24.20;30.80
64888;DHT22;51386;53.082;8.816;2023-04-29T12:27:07;24.30;31.00
64888;DHT22;51386;53.082;8.816;2023-04-29T12:29:35;24.40;30.70
64888;DHT22;51386;53.082;8.816;2023-04-29T12:32:03;24.30;30.40
64888;DHT22;51386;53.082;8.816;2023-04-29T12:34:31;24.20;31.10
64888;DHT22;51386;53.082;8.816;2023-04-29T12:36:59;24.20;30.80
64888;DHT22;51386;53.082;8.816;2023-04-29T12:39:26;24.30;31.20
64888;DHT22;51386;53.082;8.816;2023-04-29T12:41:57;24.30;31.20
64888;DHT22;51386;53.082;8.816;2023-04-29T12:44:25;24.10;30.40
64888;DHT22;51386;53.082;8.816;2023-04-29T12:46:52;24.10;31.20
64888;DHT22;51386;53.082;8.816;2023-04-29T12:49:23;24.20;31.60
64888;DHT22;51386;53.082;8.816;2023-04-29T12:51:50;24.30;30.70
64888;DHT22;51386;53.082;8.816;2023-04-29T12:54:17;24.40;30.30
64888;DHT22;51386;53.082;8.816;2023-04-29T12:56:44;24.50;30.50
64888;DHT22;51386;53.082;8.816;2023-04-29T12:59:15;24.60;30.00
64888;DHT22;51386;53.082;8.816;2023-04-29T13:01:42;24.70;29.20
64888;DHT22;51386;53.082;8.816;2023-04-29T13:04:09;24.80;29.00
64888;DHT22;51386;53.082;8.816;2023-04-29T13:06:37;24.90;28.40
64888;DHT22;51386;53.082;8.816;2023-04-29T13:09:05;24.90;28.00
64888;DHT22;51386;53.082;8.816;2023-04-29T13:11:32;24.50;28.00
64888;DHT22;51386;53.082;8.816;2023-04-29T13:14:00;24.30;28.50
64888;DHT22;51386;53.082;8.816;2023-04-29T13:16:28;24.20;28.20
64888;DHT22;51386;53.082;8.816;2023-04-29T13:18:55;24.10;28.40
64888;DHT22;51386;53.082;8.816;2023-04-29T13:21:42;24.10;28.10
64888;DHT22;51386;53.082;8.816;2023-04-29T13:24:12;24.20;28.00
64888;DHT22;51386;53.082;8.816;2023-04-29T13:26:40;24.30;27.80
64888;DHT22;51386;53.082;8.816;2023-04-29T13:29:06;24.40;28.30
64888;DHT22;51386;53.082;8.816;2023-04-29T13:31:35;24.50;28.00
64888;DHT22;51386;53.082;8.816;2023-04-29T13:34:02;24.50;28.40
64888;DHT22;51386;53.082;8.816;2023-04-29T13:36:29;24.40;28.40
64888;DHT22;51386;53.082;8.816;2023-04-29T13:38:56;24.40;28.30
64888;DHT22;51386;53.082;8.816;2023-04-29T13:41:23;24.30;28.40
64888;DHT22;51386;53.082;8.816;2023-04-29T13:43:52;24.30;28.90
64888;DHT22;51386;53.082;8.816;2023-04-29T13:46:24;24.30;29.20
64888;DHT22;51386;53.082;8.816;2023-04-29T13:48:52;24.30;28.90
64888;DHT22;51386;53.082;8.816;2023-04-29T13:51:39;24.30;29.40
64888;DHT22;51386;53.082;8.816;2023-04-29T13:54:09;24.40;29.70
64888;DHT22;51386;53.082;8.816;2023-04-29T13:56:56;24.60;29.90
64888;DHT22;51386;53.082;8.816;2023-04-29T13:59:26;24.70;28.80
64888;DHT22;51386;53.082;8.816;2023-04-29T14:02:11;24.70;28.40
64888;DHT22;51386;53.082;8.816;2023-04-29T14:04:53;24.40;28.80
64888;DHT22;51386;53.082;8.816;2023-04-29T14:07:21;24.40;29.10
64888;DHT22;51386;53.082;8.816;2023-04-29T14:09:48;24.30;29.10
64888;DHT22;51386;53.082;8.816;2023-04-29T14:12:15;24.30;29.50
64888;DHT22;51386;53.082;8.816;2023-04-29T14:14:42;24.20;29.20
64888;DHT22;51386;53.082;8.816;2023-04-29T14:17:09;24.10;29.10
64888;DHT22;51386;53.082;8.816;2023-04-29T14:19:36;24.10;29.40
64888;DHT22;51386;53.082;8.816;2023-04-29T14:22:04;24.10;29.20
64888;DHT22;51386;53.082;8.816;2023-04-29T14:24:31;24.00;29.00
64888;DHT22;51386;53.082;8.816;2023-04-29T14:26:58;23.90;28.90
64888;DHT22;51386;53.082;8.816;2023-04-29T14:29:26;23.90;29.20
64888;DHT22;51386;53.082;8.816;2023-04-29T14:31:53;23.90;29.50
64888;DHT22;51386;53.082;8.816;2023-04-29T14:34:20;23.90;29.50
64888;DHT22;51386;53.082;8.816;2023-04-29T14:36:47;23.90;29.30
64888;DHT22;51386;53.082;8.816;2023-04-29T14:39:16;23.80;28.80
64888;DHT22;51386;53.082;8.816;2023-04-29T14:41:43;23.90;28.90
64888;DHT22;51386;53.082;8.816;2023-04-29T14:44:10;23.90;29.20
64888;DHT22;51386;53.082;8.816;2023-04-29T14:46:37;23.90;29.40
64888;DHT22;51386;53.082;8.816;2023-04-29T14:49:04;23.90;29.20
64888;DHT22;51386;53.082;8.816;2023-04-29T14:51:31;23.90;28.90
64888;DHT22;51386;53.082;8.816;2023-04-29T14:53:58;23.90;28.60
64888;DHT22;51386;53.082;8.816;2023-04-29T14:56:27;23.90;27.80
64888;DHT22;51386;53.082;8.816;2023-04-29T14:58:54;23.80;28.00
64888;DHT22;51386;53.082;8.816;2023-04-29T15:01:21;23.80;27.90
64888;DHT22;51386;53.082;8.816;2023-04-29T15:03:48;23.80;28.10
64888;DHT22;51386;53.082;8.816;2023-04-29T15:06:15;23.60;28.20
64888;DHT22;51386;53.082;8.816;2023-04-29T15:08:42;23.50;28.60
64888;DHT22;51386;53.082;8.816;2023-04-29T15:11:09;23.30;29.10
64888;DHT22;51386;53.082;8.816;2023-04-29T15:13:38;23.00;29.90
64888;DHT22;51386;53.082;8.816;2023-04-29T15:16:05;22.80;30.40
64888;DHT22;51386;53.082;8.816;2023-04-29T15:18:33;22.60;31.00
64888;DHT22;51386;53.082;8.816;2023-04-29T15:21:00;22.50;31.90
64888;DHT22;51386;53.082;8.816;2023-04-29T15:23:27;22.20;33.10
64888;DHT22;51386;53.082;8.816;2023-04-29T15:25:54;21.90;34.30
64888;DHT22;51386;53.082;8.816;2023-04-29T15:28:22;21.70;34.90
64888;DHT22;51386;53.082;8.816;2023-04-29T15:30:52;21.40;36.60
64888;DHT22;51386;53.082;8.816;2023-04-29T15:33:19;21.30;37.30
64888;DHT22;51386;53.082;8.816;2023-04-29T15:35:46;21.20;38.20
64888;DHT22;51386;53.082;8.816;2023-04-29T15:38:13;21.30;38.20
64888;DHT22;51386;53.082;8.816;2023-04-29T15:40:40;21.20;39.00
64888;DHT22;51386;53.082;8.816;2023-04-29T15:43:07;21.30;38.80